sensor_id;sensor_type;location;lat;lon;timestamp;P1;durP1;ratioP1;P2;durP2;ratioP2
18249;SDS011;27980;52.126;5.572;2023-05-28T00:01:48;11.30;;;2.90;;
18249;SDS011;27980;52.126;5.572;2023-05-28T00:04:14;7.65;;;3.42;;
18249;SDS011;27980;52.126;5.572;2023-05-28T00:06:41;8.00;;;3.05;;
18249;SDS011;27980;52.126;5.572;2023-05-28T00:09:07;13.32;;;3.92;;
18249;SDS011;27980;52.126;5.572;2023-05-28T00:11:34;11.00;;;3.63;;
18249;SDS011;27980;52.126;5.572;2023-05-28T00:14:00;9.57;;;3.65;;
18249;SDS011;27980;52.126;5.572;2023-05-28T00:16:28;8.88;;;3.20;;
18249;SDS011;27980;52.126;5.572;2023-05-28T00:18:55;8.68;;;2.97;;
18249;SDS011;27980;52.126;5.572;2023-05-28T00:21:21;8.82;;;3.92;;
18249;SDS011;27980;52.126;5.572;2023-05-28T00:23:47;11.38;;;3.08;;
18249;SDS011;27980;52.126;5.572;2023-05-28T00:26:15;6.60;;;3.40;;
18249;SDS011;27980;52.126;5.572;2023-05-28T00:28:41;12.43;;;3.92;;
18249;SDS011;27980;52.126;5.572;2023-05-28T00:31:07;4.82;;;2.55;;
18249;SDS011;27980;52.126;5.572;2023-05-28T00:33:35;13.13;;;4.20;;
18249;SDS011;27980;52.126;5.572;2023-05-28T00:36:01;9.02;;;3.55;;
18249;SDS011;27980;52.126;5.572;2023-05-28T00:38:32;9.82;;;3.40;;
18249;SDS011;27980;52.126;5.572;2023-05-28T00:40:58;11.25;;;3.47;;
18249;SDS011;27980;52.126;5.572;2023-05-28T00:43:25;6.45;;;3.20;;
18249;SDS011;27980;52.126;5.572;2023-05-28T00:45:51;7.60;;;3.70;;
18249;SDS011;27980;52.126;5.572;2023-05-28T00:48:17;9.18;;;3.80;;
18249;SDS011;27980;52.126;5.572;2023-05-28T00:50:45;9.05;;;3.53;;
18249;SDS011;27980;52.126;5.572;2023-05-28T00:53:12;9.48;;;3.40;;
18249;SDS011;27980;52.126;5.572;2023-05-28T00:55:38;8.50;;;2.97;;
18249;SDS011;27980;52.126;5.572;2023-05-28T00:58:05;7.43;;;3.47;;
18249;SDS011;27980;52.126;5.572;2023-05-28T01:00:32;10.00;;;3.70;;
18249;SDS011;27980;52.126;5.572;2023-05-28T01:02:59;13.23;;;3.78;;
18249;SDS011;27980;52.126;5.572;2023-05-28T01:05:26;6.95;;;3.33;;
18249;SDS011;27980;52.126;5.572;2023-05-28T01:07:54;8.68;;;3.33;;
18249;SDS011;27980;52.126;5.572;2023-05-28T01:10:21;5.88;;;3.15;;
18249;SDS011;27980;52.126;5.572;2023-05-28T01:12:49;7.97;;;4.13;;
18249;SDS011;27980;52.126;5.572;2023-05-28T01:15:16;14.40;;;3.60;;
18249;SDS011;27980;52.126;5.572;2023-05-28T01:17:43;11.73;;;3.83;;
18249;SDS011;27980;52.126;5.572;2023-05-28T01:20:09;8.05;;;3.92;;
18249;SDS011;27980;52.126;5.572;2023-05-28T01:22:37;9.48;;;3.55;;
18249;SDS011;27980;52.126;5.572;2023-05-28T01:25:06;12.82;;;4.30;;
18249;SDS011;27980;52.126;5.572;2023-05-28T01:27:34;9.38;;;3.63;;
18249;SDS011;27980;52.126;5.572;2023-05-28T01:30:01;11.75;;;3.60;;
18249;SDS011;27980;52.126;5.572;2023-05-28T01:32:27;10.07;;;4.28;;
18249;SDS011;27980;52.126;5.572;2023-05-28T01:34:53;11.80;;;4.45;;
18249;SDS011;27980;52.126;5.572;2023-05-28T01:37:20;8.18;;;3.72;;
18249;SDS011;27980;52.126;5.572;2023-05-28T01:39:47;8.75;;;3.78;;
18249;SDS011;27980;52.126;5.572;2023-05-28T01:42:16;8.05;;;3.80;;
18249;SDS011;27980;52.126;5.572;2023-05-28T01:44:43;8.77;;;4.35;;
18249;SDS011;27980;52.126;5.572;2023-05-28T01:47:10;6.93;;;3.72;;
18249;SDS011;27980;52.126;5.572;2023-05-28T01:49:38;6.38;;;3.20;;
18249;SDS011;27980;52.126;5.572;2023-05-28T01:52:05;13.77;;;3.72;;
18249;SDS011;27980;52.126;5.572;2023-05-28T01:54:32;10.77;;;3.70;;
18249;SDS011;27980;52.126;5.572;2023-05-28T01:56:58;5.90;;;3.42;;
18249;SDS011;27980;52.126;5.572;2023-05-28T01:59:27;9.20;;;4.03;;
18249;SDS011;27980;52.126;5.572;2023-05-28T02:01:53;8.15;;;4.07;;
18249;SDS011;27980;52.126;5.572;2023-05-28T02:04:19;10.75;;;3.95;;
18249;SDS011;27980;52.126;5.572;2023-05-28T02:06:46;9.93;;;4.63;;
18249;SDS011;27980;52.126;5.572;2023-05-28T02:09:13;10.55;;;4.45;;
18249;SDS011;27980;52.126;5.572;2023-05-28T02:11:39;11.77;;;3.67;;
18249;SDS011;27980;52.126;5.572;2023-05-28T02:14:05;6.88;;;3.95;;
18249;SDS011;27980;52.126;5.572;2023-05-28T02:16:36;12.18;;;4.50;;
18249;SDS011;27980;52.126;5.572;2023-05-28T02:19:03;13.07;;;4.50;;
18249;SDS011;27980;52.126;5.572;2023-05-28T02:21:30;6.78;;;3.35;;
18249;SDS011;27980;52.126;5.572;2023-05-28T02:23:56;8.07;;;3.70;;
18249;SDS011;27980;52.126;5.572;2023-05-28T02:26:22;6.90;;;3.83;;
18249;SDS011;27980;52.126;5.572;2023-05-28T02:28:50;8.98;;;4.13;;
18249;SDS011;27980;52.126;5.572;2023-05-28T02:31:16;9.63;;;4.10;;
18249;SDS011;27980;52.126;5.572;2023-05-28T02:33:44;7.80;;;3.70;;
18249;SDS011;27980;52.126;5.572;2023-05-28T02:36:10;7.88;;;3.75;;
18249;SDS011;27980;52.126;5.572;2023-05-28T02:38:37;8.82;;;3.85;;
18249;SDS011;27980;52.126;5.572;2023-05-28T02:41:04;11.52;;;4.70;;
18249;SDS011;27980;52.126;5.572;2023-05-28T02:43:30;10.00;;;4.38;;
18249;SDS011;27980;52.126;5.572;2023-05-28T02:45:56;6.78;;;4.03;;
18249;SDS011;27980;52.126;5.572;2023-05-28T02:48:24;13.10;;;3.92;;
18249;SDS011;27980;52.126;5.572;2023-05-28T02:50:52;9.02;;;4.22;;
18249;SDS011;27980;52.126;5.572;2023-05-28T02:53:21;8.30;;;4.13;;
18249;SDS011;27980;52.126;5.572;2023-05-28T02:55:48;10.63;;;4.00;;
18249;SDS011;27980;52.126;5.572;2023-05-28T02:58:15;7.85;;;3.55;;
18249;SDS011;27980;52.126;5.572;2023-05-28T03:00:42;8.10;;;3.78;;
18249;SDS011;27980;52.126;5.572;2023-05-28T03:03:11;11.07;;;4.40;;
18249;SDS011;27980;52.126;5.572;2023-05-28T03:05:38;9.73;;;3.97;;
18249;SDS011;27980;52.126;5.572;2023-05-28T03:08:07;12.05;;;3.60;;
18249;SDS011;27980;52.126;5.572;2023-05-28T03:10:33;7.60;;;4.35;;
18249;SDS011;27980;52.126;5.572;2023-05-28T03:13:00;6.32;;;3.85;;
18249;SDS011;27980;52.126;5.572;2023-05-28T03:15:28;11.60;;;4.63;;
18249;SDS011;27980;52.126;5.572;2023-05-28T03:17:56;8.32;;;3.70;;
18249;SDS011;27980;52.126;5.572;2023-05-28T03:20:23;8.85;;;3.42;;
18249;SDS011;27980;52.126;5.572;2023-05-28T03:22:54;8.48;;;3.75;;
18249;SDS011;27980;52.126;5.572;2023-05-28T03:25:21;13.50;;;4.20;;
18249;SDS011;27980;52.126;5.572;2023-05-28T03:27:49;12.05;;;3.85;;
18249;SDS011;27980;52.126;5.572;2023-05-28T03:30:15;6.93;;;3.95;;
18249;SDS011;27980;52.126;5.572;2023-05-28T03:32:42;8.43;;;3.83;;
18249;SDS011;27980;52.126;5.572;2023-05-28T03:35:08;7.53;;;3.88;;
18249;SDS011;27980;52.126;5.572;2023-05-28T03:37:35;8.07;;;4.15;;
18249;SDS011;27980;52.126;5.572;2023-05-28T03:40:01;11.40;;;4.28;;
18249;SDS011;27980;52.126;5.572;2023-05-28T03:42:30;9.60;;;3.97;;
18249;SDS011;27980;52.126;5.572;2023-05-28T03:44:57;11.27;;;3.90;;
18249;SDS011;27980;52.126;5.572;2023-05-28T03:47:23;9.18;;;3.83;;
18249;SDS011;27980;52.126;5.572;2023-05-28T03:49:51;5.63;;;3.65;;
18249;SDS011;27980;52.126;5.572;2023-05-28T03:52:17;7.80;;;3.88;;
18249;SDS011;27980;52.126;5.572;2023-05-28T03:54:43;9.75;;;4.20;;
18249;SDS011;27980;52.126;5.572;2023-05-28T03:57:12;10.60;;;3.53;;
18249;SDS011;27980;52.126;5.572;2023-05-28T03:59:39;12.48;;;3.90;;
18249;SDS011;27980;52.126;5.572;2023-05-28T04:02:05;8.43;;;3.25;;
18249;SDS011;27980;52.126;5.572;2023-05-28T04:04:32;10.60;;;4.00;;
18249;SDS011;27980;52.126;5.572;2023-05-28T04:06:58;10.40;;;4.25;;
18249;SDS011;27980;52.126;5.572;2023-05-28T04:09:24;10.55;;;3.85;;
18249;SDS011;27980;52.126;5.572;2023-05-28T04:11:52;8.88;;;3.70;;
18249;SDS011;27980;52.126;5.572;2023-05-28T04:14:18;8.98;;;4.63;;
18249;SDS011;27980;52.126;5.572;2023-05-28T04:16:47;7.13;;;3.90;;
18249;SDS011;27980;52.126;5.572;2023-05-28T04:19:13;14.20;;;5.00;;
18249;SDS011;27980;52.126;5.572;2023-05-28T04:21:40;8.43;;;3.83;;
18249;SDS011;27980;52.126;5.572;2023-05-28T04:24:06;9.90;;;4.15;;
18249;SDS011;27980;52.126;5.572;2023-05-28T04:26:32;10.90;;;4.68;;
18249;SDS011;27980;52.126;5.572;2023-05-28T04:28:59;6.65;;;3.70;;
18249;SDS011;27980;52.126;5.572;2023-05-28T04:31:27;6.63;;;3.63;;
18249;SDS011;27980;52.126;5.572;2023-05-28T04:33:54;12.43;;;4.65;;
18249;SDS011;27980;52.126;5.572;2023-05-28T04:36:21;10.82;;;3.92;;
18249;SDS011;27980;52.126;5.572;2023-05-28T04:38:54;7.05;;;4.13;;
18249;SDS011;27980;52.126;5.572;2023-05-28T04:41:22;7.78;;;4.00;;
18249;SDS011;27980;52.126;5.572;2023-05-28T04:43:48;12.20;;;4.13;;
18249;SDS011;27980;52.126;5.572;2023-05-28T04:46:15;8.02;;;3.35;;
18249;SDS011;27980;52.126;5.572;2023-05-28T04:48:41;8.18;;;3.80;;
18249;SDS011;27980;52.126;5.572;2023-05-28T04:51:09;8.48;;;4.00;;
18249;SDS011;27980;52.126;5.572;2023-05-28T04:53:35;11.57;;;4.05;;
18249;SDS011;27980;52.126;5.572;2023-05-28T04:56:01;10.85;;;4.00;;
18249;SDS011;27980;52.126;5.572;2023-05-28T04:58:28;6.80;;;3.35;;
18249;SDS011;27980;52.126;5.572;2023-05-28T05:00:55;6.60;;;3.60;;
18249;SDS011;27980;52.126;5.572;2023-05-28T05:03:21;6.85;;;3.50;;
18249;SDS011;27980;52.126;5.572;2023-05-28T05:05:47;8.13;;;3.67;;
18249;SDS011;27980;52.126;5.572;2023-05-28T05:08:15;7.28;;;3.88;;
18249;SDS011;27980;52.126;5.572;2023-05-28T05:10:41;9.48;;;4.00;;
18249;SDS011;27980;52.126;5.572;2023-05-28T05:13:08;9.75;;;4.45;;
18249;SDS011;27980;52.126;5.572;2023-05-28T05:15:34;13.63;;;4.70;;
18249;SDS011;27980;52.126;5.572;2023-05-28T05:18:01;8.88;;;3.90;;
18249;SDS011;27980;52.126;5.572;2023-05-28T05:20:27;7.03;;;4.25;;
18249;SDS011;27980;52.126;5.572;2023-05-28T05:22:54;7.72;;;4.25;;
18249;SDS011;27980;52.126;5.572;2023-05-28T05:25:23;11.20;;;3.97;;
18249;SDS011;27980;52.126;5.572;2023-05-28T05:27:49;8.00;;;4.90;;
18249;SDS011;27980;52.126;5.572;2023-05-28T05:30:16;10.63;;;4.43;;
18249;SDS011;27980;52.126;5.572;2023-05-28T05:32:42;8.32;;;4.25;;
18249;SDS011;27980;52.126;5.572;2023-05-28T05:35:09;7.28;;;3.75;;
18249;SDS011;27980;52.126;5.572;2023-05-28T05:37:36;8.52;;;3.90;;
18249;SDS011;27980;52.126;5.572;2023-05-28T05:40:03;10.77;;;4.55;;
18249;SDS011;27980;52.126;5.572;2023-05-28T05:42:32;8.95;;;5.20;;
18249;SDS011;27980;52.126;5.572;2023-05-28T05:44:58;11.27;;;4.35;;
18249;SDS011;27980;52.126;5.572;2023-05-28T05:47:24;6.38;;;3.83;;
18249;SDS011;27980;52.126;5.572;2023-05-28T05:49:51;12.55;;;4.50;;
18249;SDS011;27980;52.126;5.572;2023-05-28T05:52:17;8.05;;;3.65;;
18249;SDS011;27980;52.126;5.572;2023-05-28T05:54:43;8.38;;;4.18;;
18249;SDS011;27980;52.126;5.572;2023-05-28T05:57:10;6.22;;;3.65;;
18249;SDS011;27980;52.126;5.572;2023-05-28T05:59:38;7.38;;;3.97;;
18249;SDS011;27980;52.126;5.572;2023-05-28T06:02:04;9.60;;;4.30;;
18249;SDS011;27980;52.126;5.572;2023-05-28T06:04:31;12.88;;;4.93;;
18249;SDS011;27980;52.126;5.572;2023-05-28T06:06:58;8.57;;;3.85;;
18249;SDS011;27980;52.126;5.572;2023-05-28T06:09:29;8.52;;;4.07;;
18249;SDS011;27980;52.126;5.572;2023-05-28T06:11:56;10.77;;;4.38;;
18249;SDS011;27980;52.126;5.572;2023-05-28T06:14:22;6.05;;;3.65;;
18249;SDS011;27980;52.126;5.572;2023-05-28T06:16:50;8.38;;;3.92;;
18249;SDS011;27980;52.126;5.572;2023-05-28T06:19:16;9.65;;;4.32;;
18249;SDS011;27980;52.126;5.572;2023-05-28T06:21:43;11.93;;;4.28;;
18249;SDS011;27980;52.126;5.572;2023-05-28T06:24:10;6.55;;;3.35;;
18249;SDS011;27980;52.126;5.572;2023-05-28T06:26:36;5.00;;;3.67;;
18249;SDS011;27980;52.126;5.572;2023-05-28T06:29:02;9.15;;;4.07;;
18249;SDS011;27980;52.126;5.572;2023-05-28T06:31:30;11.50;;;3.47;;
18249;SDS011;27980;52.126;5.572;2023-05-28T06:33:59;4.88;;;3.50;;
18249;SDS011;27980;52.126;5.572;2023-05-28T06:36:26;10.13;;;3.35;;
18249;SDS011;27980;52.126;5.572;2023-05-28T06:38:53;7.40;;;3.30;;
18249;SDS011;27980;52.126;5.572;2023-05-28T06:41:20;7.28;;;3.15;;
18249;SDS011;27980;52.126;5.572;2023-05-28T06:43:47;7.28;;;3.30;;
18249;SDS011;27980;52.126;5.572;2023-05-28T06:46:14;6.38;;;3.13;;
18249;SDS011;27980;52.126;5.572;2023-05-28T06:48:40;6.13;;;3.20;;
18249;SDS011;27980;52.126;5.572;2023-05-28T06:51:08;4.47;;;2.97;;
18249;SDS011;27980;52.126;5.572;2023-05-28T06:53:34;4.57;;;2.65;;
18249;SDS011;27980;52.126;5.572;2023-05-28T06:56:05;9.77;;;3.03;;
18249;SDS011;27980;52.126;5.572;2023-05-28T06:58:31;6.00;;;2.95;;
18249;SDS011;27980;52.126;5.572;2023-05-28T07:00:59;5.22;;;2.90;;
18249;SDS011;27980;52.126;5.572;2023-05-28T07:03:26;4.60;;;2.45;;
18249;SDS011;27980;52.126;5.572;2023-05-28T07:05:53;5.85;;;2.80;;
18249;SDS011;27980;52.126;5.572;2023-05-28T07:08:23;4.95;;;2.70;;
18249;SDS011;27980;52.126;5.572;2023-05-28T07:10:49;8.63;;;3.42;;
18249;SDS011;27980;52.126;5.572;2023-05-28T07:13:16;7.30;;;2.90;;
18249;SDS011;27980;52.126;5.572;2023-05-28T07:15:43;6.88;;;3.20;;
18249;SDS011;27980;52.126;5.572;2023-05-28T07:18:09;5.57;;;2.58;;
18249;SDS011;27980;52.126;5.572;2023-05-28T07:20:35;5.55;;;2.63;;
18249;SDS011;27980;52.126;5.572;2023-05-28T07:23:02;4.95;;;3.03;;
18249;SDS011;27980;52.126;5.572;2023-05-28T07:25:31;4.90;;;2.60;;
18249;SDS011;27980;52.126;5.572;2023-05-28T07:27:57;4.47;;;2.58;;
18249;SDS011;27980;52.126;5.572;2023-05-28T07:30:24;5.32;;;2.60;;
18249;SDS011;27980;52.126;5.572;2023-05-28T07:32:50;7.97;;;3.05;;
18249;SDS011;27980;52.126;5.572;2023-05-28T07:35:16;4.47;;;2.60;;
18249;SDS011;27980;52.126;5.572;2023-05-28T07:37:43;3.55;;;2.30;;
18249;SDS011;27980;52.126;5.572;2023-05-28T07:40:09;4.28;;;2.45;;
18249;SDS011;27980;52.126;5.572;2023-05-28T07:42:37;4.80;;;2.53;;
18249;SDS011;27980;52.126;5.572;2023-05-28T07:45:04;4.57;;;2.15;;
18249;SDS011;27980;52.126;5.572;2023-05-28T07:47:30;7.15;;;3.05;;
18249;SDS011;27980;52.126;5.572;2023-05-28T07:49:57;8.07;;;2.80;;
18249;SDS011;27980;52.126;5.572;2023-05-28T07:52:23;5.45;;;2.85;;
18249;SDS011;27980;52.126;5.572;2023-05-28T07:54:50;3.65;;;2.10;;
18249;SDS011;27980;52.126;5.572;2023-05-28T07:57:17;5.53;;;2.17;;
18249;SDS011;27980;52.126;5.572;2023-05-28T07:59:45;7.25;;;2.75;;
18249;SDS011;27980;52.126;5.572;2023-05-28T08:02:12;5.32;;;2.60;;
18249;SDS011;27980;52.126;5.572;2023-05-28T08:04:38;6.00;;;2.38;;
18249;SDS011;27980;52.126;5.572;2023-05-28T08:07:05;3.83;;;2.17;;
18249;SDS011;27980;52.126;5.572;2023-05-28T08:09:31;4.60;;;2.55;;
18249;SDS011;27980;52.126;5.572;2023-05-28T08:12:00;4.85;;;2.25;;
18249;SDS011;27980;52.126;5.572;2023-05-28T08:14:26;3.20;;;2.00;;
18249;SDS011;27980;52.126;5.572;2023-05-28T08:16:54;4.85;;;2.53;;
18249;SDS011;27980;52.126;5.572;2023-05-28T08:19:22;5.38;;;2.20;;
18249;SDS011;27980;52.126;5.572;2023-05-28T08:21:48;8.82;;;2.50;;
18249;SDS011;27980;52.126;5.572;2023-05-28T08:24:15;5.70;;;2.28;;
18249;SDS011;27980;52.126;5.572;2023-05-28T08:26:42;6.38;;;2.10;;
18249;SDS011;27980;52.126;5.572;2023-05-28T08:29:08;5.03;;;1.98;;
18249;SDS011;27980;52.126;5.572;2023-05-28T08:31:34;4.55;;;2.13;;
18249;SDS011;27980;52.126;5.572;2023-05-28T08:34:02;4.43;;;1.73;;
18249;SDS011;27980;52.126;5.572;2023-05-28T08:36:29;6.28;;;2.40;;
18249;SDS011;27980;52.126;5.572;2023-05-28T08:38:56;6.30;;;2.42;;
18249;SDS011;27980;52.126;5.572;2023-05-28T08:41:25;4.50;;;2.17;;
18249;SDS011;27980;52.126;5.572;2023-05-28T08:43:52;4.28;;;2.20;;
18249;SDS011;27980;52.126;5.572;2023-05-28T08:46:19;4.13;;;1.80;;
18249;SDS011;27980;52.126;5.572;2023-05-28T08:48:46;5.00;;;2.10;;
18249;SDS011;27980;52.126;5.572;2023-05-28T08:51:14;2.97;;;1.80;;
18249;SDS011;27980;52.126;5.572;2023-05-28T08:53:43;5.00;;;2.10;;
18249;SDS011;27980;52.126;5.572;2023-05-28T08:56:10;3.08;;;1.73;;
18249;SDS011;27980;52.126;5.572;2023-05-28T08:58:36;2.78;;;2.00;;
18249;SDS011;27980;52.126;5.572;2023-05-28T09:01:03;21.30;;;2.97;;
18249;SDS011;27980;52.126;5.572;2023-05-28T09:03:31;4.05;;;1.85;;
18249;SDS011;27980;52.126;5.572;2023-05-28T09:05:58;5.68;;;2.40;;
18249;SDS011;27980;52.126;5.572;2023-05-28T09:08:27;3.47;;;2.10;;
18249;SDS011;27980;52.126;5.572;2023-05-28T09:10:55;3.95;;;2.08;;
18249;SDS011;27980;52.126;5.572;2023-05-28T09:13:22;6.43;;;2.67;;
18249;SDS011;27980;52.126;5.572;2023-05-28T09:15:50;3.65;;;2.03;;
18249;SDS011;27980;52.126;5.572;2023-05-28T09:18:19;4.50;;;2.03;;
18249;SDS011;27980;52.126;5.572;2023-05-28T09:20:45;4.50;;;2.20;;
18249;SDS011;27980;52.126;5.572;2023-05-28T09:23:11;3.92;;;1.83;;
18249;SDS011;27980;52.126;5.572;2023-05-28T09:25:39;4.43;;;2.30;;
18249;SDS011;27980;52.126;5.572;2023-05-28T09:28:05;4.40;;;2.17;;
18249;SDS011;27980;52.126;5.572;2023-05-28T09:30:33;5.20;;;2.40;;
18249;SDS011;27980;52.126;5.572;2023-05-28T09:33:00;3.22;;;1.85;;
18249;SDS011;27980;52.126;5.572;2023-05-28T09:35:27;5.30;;;2.10;;
18249;SDS011;27980;52.126;5.572;2023-05-28T09:38:01;4.63;;;2.35;;
18249;SDS011;27980;52.126;5.572;2023-05-28T09:40:28;3.33;;;2.50;;
18249;SDS011;27980;52.126;5.572;2023-05-28T09:42:55;6.47;;;2.13;;
18249;SDS011;27980;52.126;5.572;2023-05-28T09:45:22;5.18;;;2.42;;
18249;SDS011;27980;52.126;5.572;2023-05-28T09:47:49;4.90;;;2.13;;
18249;SDS011;27980;52.126;5.572;2023-05-28T09:50:16;4.65;;;2.08;;
18249;SDS011;27980;52.126;5.572;2023-05-28T09:52:42;3.75;;;2.28;;
18249;SDS011;27980;52.126;5.572;2023-05-28T09:55:09;4.28;;;2.38;;
18249;SDS011;27980;52.126;5.572;2023-05-28T09:57:37;6.60;;;2.85;;
18249;SDS011;27980;52.126;5.572;2023-05-28T10:00:08;4.38;;;2.15;;
18249;SDS011;27980;52.126;5.572;2023-05-28T10:02:46;7.43;;;2.05;;
18249;SDS011;27980;52.126;5.572;2023-05-28T10:05:15;2.35;;;1.90;;
18249;SDS011;27980;52.126;5.572;2023-05-28T10:07:42;4.53;;;1.95;;
18249;SDS011;27980;52.126;5.572;2023-05-28T10:10:10;3.67;;;2.30;;
18249;SDS011;27980;52.126;5.572;2023-05-28T10:12:37;4.53;;;1.88;;
18249;SDS011;27980;52.126;5.572;2023-05-28T10:15:05;4.95;;;2.10;;
18249;SDS011;27980;52.126;5.572;2023-05-28T10:17:33;5.22;;;2.20;;
18249;SDS011;27980;52.126;5.572;2023-05-28T10:20:00;3.42;;;2.10;;
18249;SDS011;27980;52.126;5.572;2023-05-28T10:22:29;4.72;;;2.38;;
18249;SDS011;27980;52.126;5.572;2023-05-28T10:24:56;5.18;;;2.55;;
18249;SDS011;27980;52.126;5.572;2023-05-28T10:27:28;3.03;;;2.17;;
18249;SDS011;27980;52.126;5.572;2023-05-28T10:29:55;3.25;;;1.95;;
18249;SDS011;27980;52.126;5.572;2023-05-28T10:32:21;4.60;;;2.25;;
18249;SDS011;27980;52.126;5.572;2023-05-28T10:34:49;5.53;;;2.25;;
18249;SDS011;27980;52.126;5.572;2023-05-28T10:37:17;4.47;;;1.98;;
18249;SDS011;27980;52.126;5.572;2023-05-28T10:39:48;5.72;;;2.25;;
18249;SDS011;27980;52.126;5.572;2023-05-28T10:42:14;4.60;;;2.08;;
18249;SDS011;27980;52.126;5.572;2023-05-28T10:47:30;3.72;;;2.38;;
18249;SDS011;27980;52.126;5.572;2023-05-28T10:49:59;6.22;;;2.10;;
18249;SDS011;27980;52.126;5.572;2023-05-28T10:52:26;4.45;;;2.25;;
18249;SDS011;27980;52.126;5.572;2023-05-28T10:54:52;7.30;;;2.08;;
18249;SDS011;27980;52.126;5.572;2023-05-28T10:57:19;4.35;;;1.98;;
18249;SDS011;27980;52.126;5.572;2023-05-28T10:59:47;3.97;;;2.20;;
18249;SDS011;27980;52.126;5.572;2023-05-28T11:02:16;3.33;;;1.85;;
18249;SDS011;27980;52.126;5.572;2023-05-28T11:04:44;4.35;;;2.05;;
18249;SDS011;27980;52.126;5.572;2023-05-28T11:07:13;3.58;;;2.10;;
18249;SDS011;27980;52.126;5.572;2023-05-28T11:09:39;3.00;;;1.70;;
18249;SDS011;27980;52.126;5.572;2023-05-28T11:12:06;5.05;;;2.08;;
18249;SDS011;27980;52.126;5.572;2023-05-28T11:14:33;2.80;;;2.17;;
18249;SDS011;27980;52.126;5.572;2023-05-28T11:17:00;4.70;;;2.40;;
18249;SDS011;27980;52.126;5.572;2023-05-28T11:19:27;3.75;;;2.10;;
18249;SDS011;27980;52.126;5.572;2023-05-28T11:21:53;4.80;;;2.22;;
18249;SDS011;27980;52.126;5.572;2023-05-28T11:24:24;3.55;;;2.08;;
18249;SDS011;27980;52.126;5.572;2023-05-28T11:26:51;6.03;;;2.35;;
18249;SDS011;27980;52.126;5.572;2023-05-28T11:29:19;5.28;;;2.10;;
18249;SDS011;27980;52.126;5.572;2023-05-28T11:31:45;10.60;;;2.55;;
18249;SDS011;27980;52.126;5.572;2023-05-28T11:34:12;606.72;;;550.60;;
18249;SDS011;27980;52.126;5.572;2023-05-28T11:36:41;689.08;;;621.33;;
18249;SDS011;27980;52.126;5.572;2023-05-28T11:39:10;402.27;;;332.90;;
18249;SDS011;27980;52.126;5.572;2023-05-28T11:41:39;198.65;;;177.23;;
18249;SDS011;27980;52.126;5.572;2023-05-28T11:44:17;287.10;;;258.52;;
18249;SDS011;27980;52.126;5.572;2023-05-28T11:46:43;237.98;;;215.60;;
18249;SDS011;27980;52.126;5.572;2023-05-28T11:49:10;40.33;;;36.10;;
18249;SDS011;27980;52.126;5.572;2023-05-28T11:51:36;208.93;;;185.73;;
18249;SDS011;27980;52.126;5.572;2023-05-28T11:54:02;94.85;;;71.40;;
18249;SDS011;27980;52.126;5.572;2023-05-28T11:56:30;10.25;;;8.82;;
18249;SDS011;27980;52.126;5.572;2023-05-28T11:58:59;7.38;;;4.00;;
18249;SDS011;27980;52.126;5.572;2023-05-28T12:01:26;4.30;;;2.75;;
18249;SDS011;27980;52.126;5.572;2023-05-28T12:04:01;8.32;;;3.72;;
18249;SDS011;27980;52.126;5.572;2023-05-28T12:06:30;7.05;;;5.40;;
18249;SDS011;27980;52.126;5.572;2023-05-28T12:09:01;8.27;;;4.43;;
18249;SDS011;27980;52.126;5.572;2023-05-28T12:11:27;20.38;;;16.90;;
18249;SDS011;27980;52.126;5.572;2023-05-28T12:13:54;7.10;;;6.35;;
18249;SDS011;27980;52.126;5.572;2023-05-28T12:16:22;3.25;;;2.47;;
18249;SDS011;27980;52.126;5.572;2023-05-28T12:18:52;6.93;;;2.55;;
18249;SDS011;27980;52.126;5.572;2023-05-28T12:21:26;4.80;;;2.45;;
18249;SDS011;27980;52.126;5.572;2023-05-28T12:23:52;5.85;;;2.65;;
18249;SDS011;27980;52.126;5.572;2023-05-28T12:26:20;6.57;;;2.50;;
18249;SDS011;27980;52.126;5.572;2023-05-28T12:28:46;5.72;;;2.63;;
18249;SDS011;27980;52.126;5.572;2023-05-28T12:31:13;5.13;;;2.45;;
18249;SDS011;27980;52.126;5.572;2023-05-28T12:33:41;5.45;;;2.30;;
18249;SDS011;27980;52.126;5.572;2023-05-28T12:36:07;3.17;;;2.22;;
18249;SDS011;27980;52.126;5.572;2023-05-28T12:38:33;6.15;;;2.17;;
18249;SDS011;27980;52.126;5.572;2023-05-28T12:41:01;5.10;;;2.67;;
18249;SDS011;27980;52.126;5.572;2023-05-28T12:43:29;4.05;;;2.28;;
18249;SDS011;27980;52.126;5.572;2023-05-28T12:45:55;4.45;;;2.35;;
18249;SDS011;27980;52.126;5.572;2023-05-28T12:48:22;3.65;;;2.50;;
18249;SDS011;27980;52.126;5.572;2023-05-28T12:51:02;5.53;;;2.70;;
18249;SDS011;27980;52.126;5.572;2023-05-28T12:53:29;4.32;;;2.60;;
18249;SDS011;27980;52.126;5.572;2023-05-28T12:55:55;5.68;;;2.10;;
18249;SDS011;27980;52.126;5.572;2023-05-28T12:58:22;3.17;;;2.50;;
18249;SDS011;27980;52.126;5.572;2023-05-28T13:00:49;6.13;;;2.72;;
18249;SDS011;27980;52.126;5.572;2023-05-28T13:03:15;4.88;;;2.67;;
18249;SDS011;27980;52.126;5.572;2023-05-28T13:05:41;3.72;;;2.60;;
18249;SDS011;27980;52.126;5.572;2023-05-28T13:08:09;5.70;;;3.10;;
18249;SDS011;27980;52.126;5.572;2023-05-28T13:10:35;5.90;;;2.22;;
18249;SDS011;27980;52.126;5.572;2023-05-28T13:13:02;6.15;;;2.58;;
18249;SDS011;27980;52.126;5.572;2023-05-28T13:15:28;4.88;;;2.17;;
18249;SDS011;27980;52.126;5.572;2023-05-28T13:17:54;6.07;;;2.67;;
18249;SDS011;27980;52.126;5.572;2023-05-28T13:20:22;5.20;;;2.65;;
18249;SDS011;27980;52.126;5.572;2023-05-28T13:22:49;6.95;;;2.45;;
18249;SDS011;27980;52.126;5.572;2023-05-28T13:25:17;3.15;;;2.17;;
18249;SDS011;27980;52.126;5.572;2023-05-28T13:27:44;4.93;;;2.55;;
18249;SDS011;27980;52.126;5.572;2023-05-28T13:30:10;5.10;;;2.33;;
18249;SDS011;27980;52.126;5.572;2023-05-28T13:32:37;5.82;;;2.75;;
18249;SDS011;27980;52.126;5.572;2023-05-28T13:35:04;3.28;;;2.30;;
18249;SDS011;27980;52.126;5.572;2023-05-28T13:37:31;4.13;;;2.40;;
18249;SDS011;27980;52.126;5.572;2023-05-28T13:39:58;3.90;;;2.55;;
18249;SDS011;27980;52.126;5.572;2023-05-28T13:42:26;8.82;;;3.35;;
18249;SDS011;27980;52.126;5.572;2023-05-28T13:44:53;6.13;;;2.85;;
18249;SDS011;27980;52.126;5.572;2023-05-28T13:47:21;3.35;;;2.55;;
18249;SDS011;27980;52.126;5.572;2023-05-28T13:49:49;5.68;;;2.90;;
18249;SDS011;27980;52.126;5.572;2023-05-28T13:52:18;5.00;;;2.25;;
18249;SDS011;27980;52.126;5.572;2023-05-28T13:57:32;6.00;;;2.92;;
18249;SDS011;27980;52.126;5.572;2023-05-28T14:00:06;6.25;;;2.92;;
18249;SDS011;27980;52.126;5.572;2023-05-28T14:02:34;5.03;;;2.33;;
18249;SDS011;27980;52.126;5.572;2023-05-28T14:05:01;6.10;;;2.70;;
18249;SDS011;27980;52.126;5.572;2023-05-28T14:07:27;5.53;;;2.67;;
18249;SDS011;27980;52.126;5.572;2023-05-28T14:09:54;4.25;;;2.38;;
18249;SDS011;27980;52.126;5.572;2023-05-28T14:12:21;2.72;;;2.10;;
18249;SDS011;27980;52.126;5.572;2023-05-28T14:14:50;4.40;;;2.55;;
18249;SDS011;27980;52.126;5.572;2023-05-28T14:17:17;3.63;;;2.50;;
18249;SDS011;27980;52.126;5.572;2023-05-28T14:19:43;6.40;;;3.00;;
18249;SDS011;27980;52.126;5.572;2023-05-28T14:22:12;5.90;;;2.33;;
18249;SDS011;27980;52.126;5.572;2023-05-28T14:24:39;5.70;;;2.78;;
18249;SDS011;27980;52.126;5.572;2023-05-28T14:27:05;5.00;;;2.38;;
18249;SDS011;27980;52.126;5.572;2023-05-28T14:29:31;7.15;;;2.72;;
18249;SDS011;27980;52.126;5.572;2023-05-28T14:31:59;3.60;;;2.05;;
18249;SDS011;27980;52.126;5.572;2023-05-28T14:34:27;5.15;;;2.72;;
18249;SDS011;27980;52.126;5.572;2023-05-28T14:36:54;4.07;;;2.08;;
18249;SDS011;27980;52.126;5.572;2023-05-28T14:39:20;3.35;;;2.33;;
18249;SDS011;27980;52.126;5.572;2023-05-28T14:41:48;6.22;;;2.50;;
18249;SDS011;27980;52.126;5.572;2023-05-28T14:44:15;4.18;;;2.50;;
18249;SDS011;27980;52.126;5.572;2023-05-28T14:46:42;7.15;;;2.45;;
18249;SDS011;27980;52.126;5.572;2023-05-28T14:49:09;2.63;;;2.10;;